createdAt,value
2023-02-11T00:01:20.267Z,45.73
2023-02-11T00:03:48.078Z,46.23
2023-02-11T00:06:15.829Z,40.20
2023-02-11T00:08:43.859Z,43.63
2023-02-11T00:11:16.114Z,45.00
2023-02-11T00:13:44.230Z,38.97
2023-02-11T00:16:14.315Z,42.00
2023-02-11T00:18:41.962Z,38.93
2023-02-11T00:21:10.252Z,37.80
2023-02-11T00:23:38.263Z,39.83
2023-02-11T00:26:12.352Z,41.90
2023-02-11T00:28:41.399Z,39.43
2023-02-11T00:31:09.419Z,41.07
2023-02-11T00:33:37.236Z,37.13
2023-02-11T00:36:05.977Z,38.73
2023-02-11T00:38:33.638Z,38.10
2023-02-11T00:41:01.345Z,32.43
2023-02-11T00:43:28.941Z,39.20
2023-02-11T00:45:58.050Z,35.93
2023-02-11T00:48:25.843Z,33.77
2023-02-11T00:50:53.457Z,34.67
2023-02-11T00:53:21.080Z,32.83
2023-02-11T00:55:49.091Z,31.53
2023-02-11T00:58:16.929Z,28.83
2023-02-11T01:00:44.722Z,31.07
2023-02-11T01:03:13.721Z,36.70
2023-02-11T01:05:41.379Z,33.27
2023-02-11T01:08:09.089Z,34.03
2023-02-11T01:10:36.775Z,36.50
2023-02-11T01:13:04.492Z,35.13
2023-02-11T01:15:32.104Z,37.67
2023-02-11T01:18:00.282Z,35.20
2023-02-11T01:20:30.376Z,35.57
2023-02-11T01:22:58.185Z,36.97
2023-02-11T01:25:25.979Z,30.43
2023-02-11T01:27:53.558Z,36.43
2023-02-11T01:30:21.162Z,36.50
2023-02-11T01:32:48.856Z,32.23
2023-02-11T01:35:16.535Z,26.73
2023-02-11T01:37:47.745Z,34.83
2023-02-11T01:40:18.156Z,34.63
2023-02-11T01:42:47.890Z,32.27
2023-02-11T01:45:50.759Z,34.83
2023-02-11T01:48:22.628Z,30.97
2023-02-11T01:50:54.752Z,35.00
2023-02-11T01:53:41.960Z,31.90
2023-02-11T01:56:27.411Z,31.83
2023-02-11T01:59:00.312Z,34.67
2023-02-11T02:01:29.980Z,35.90
2023-02-11T02:04:02.758Z,34.97
2023-02-11T02:06:35.847Z,36.37
2023-02-11T02:09:08.984Z,35.63
2023-02-11T02:11:37.334Z,38.03
2023-02-11T02:14:05.029Z,35.50
2023-02-11T02:16:35.808Z,37.03
2023-02-11T02:19:25.875Z,38.63
2023-02-11T02:22:26.098Z,35.03
2023-02-11T02:25:25.102Z,39.13
2023-02-11T02:28:02.004Z,37.80
2023-02-11T02:30:54.299Z,36.20
2023-02-11T02:33:40.716Z,39.23
2023-02-11T02:36:17.173Z,35.90
2023-02-11T02:38:51.677Z,36.93
2023-02-11T02:41:23.086Z,33.80
2023-02-11T02:43:52.587Z,34.80
2023-02-11T02:46:24.461Z,36.10
2023-02-11T02:48:54.708Z,38.07
2023-02-11T02:51:46.686Z,32.80
2023-02-11T02:55:02.008Z,37.47
2023-02-11T02:57:40.190Z,43.37
2023-02-11T03:00:22.741Z,35.27
2023-02-11T03:03:07.003Z,37.80
2023-02-11T03:05:49.575Z,36.77
2023-02-11T03:08:23.310Z,33.47
2023-02-11T03:10:53.542Z,36.67
2023-02-11T03:13:32.003Z,33.93
2023-02-11T03:16:01.770Z,37.80
2023-02-11T03:18:31.534Z,38.50
2023-02-11T03:21:03.496Z,36.17
2023-02-11T03:23:37.456Z,35.90
2023-02-11T03:26:12.633Z,34.77
2023-02-11T03:28:46.568Z,35.67
2023-02-11T03:31:20.077Z,35.77
2023-02-11T03:33:57.966Z,38.50
2023-02-11T03:36:34.014Z,37.93
2023-02-11T03:39:03.877Z,38.67
2023-02-11T03:41:32.651Z,36.03
2023-02-11T03:44:00.943Z,39.90
2023-02-11T03:46:32.268Z,43.23
2023-02-11T03:49:05.217Z,42.80
2023-02-11T03:51:35.717Z,35.50
2023-02-11T03:54:06.959Z,32.90
2023-02-11T03:56:40.608Z,38.57
2023-02-11T03:59:08.996Z,39.37
2023-02-11T04:01:36.689Z,37.47
2023-02-11T04:04:04.578Z,37.77
2023-02-11T04:06:32.168Z,38.43
2023-02-11T04:09:01.156Z,38.23
2023-02-11T04:11:28.864Z,36.87
2023-02-11T04:13:56.462Z,31.43
2023-02-11T04:16:24.167Z,41.03
2023-02-11T04:18:51.835Z,36.60
2023-02-11T04:21:19.717Z,38.60
2023-02-11T04:23:47.315Z,40.23
2023-02-11T04:26:16.366Z,39.77
2023-02-11T04:28:44.058Z,41.40
2023-02-11T04:31:12.877Z,35.10
2023-02-11T04:33:40.457Z,35.47
2023-02-11T04:36:09.055Z,34.87
2023-02-11T04:38:36.657Z,41.57
2023-02-11T04:41:04.253Z,36.70
2023-02-11T04:43:33.212Z,37.47
2023-02-11T04:46:00.850Z,35.03
2023-02-11T04:48:28.584Z,32.43
2023-02-11T04:50:56.199Z,41.53
2023-02-11T04:53:23.843Z,32.50
2023-02-11T04:55:52.305Z,35.27
2023-02-11T04:58:21.011Z,41.17
2023-02-11T05:00:50.089Z,32.17
2023-02-11T05:03:18.324Z,32.57
2023-02-11T05:05:46.037Z,37.73
2023-02-11T05:08:14.196Z,35.67
2023-02-11T05:10:41.751Z,34.63
2023-02-11T05:13:09.433Z,36.53
2023-02-11T05:15:37.041Z,29.73
2023-02-11T05:18:06.298Z,32.70
2023-02-11T05:20:33.940Z,35.13
2023-02-11T05:23:01.551Z,34.33
2023-02-11T05:25:29.189Z,27.17
2023-02-11T05:27:57.126Z,32.90
2023-02-11T05:30:24.767Z,27.20
2023-02-11T05:32:52.602Z,30.03
2023-02-11T05:35:22.170Z,30.27
2023-02-11T05:37:49.841Z,33.47
2023-02-11T05:40:17.757Z,29.07
2023-02-11T05:42:45.450Z,31.57
2023-02-11T05:45:13.097Z,28.93
2023-02-11T05:47:40.739Z,34.53
2023-02-11T05:50:08.927Z,36.60
2023-02-11T05:52:37.931Z,37.10
2023-02-11T05:55:06.371Z,30.63
2023-02-11T05:57:34.237Z,36.20
2023-02-11T06:00:01.840Z,35.00
2023-02-11T06:02:29.550Z,37.30
2023-02-11T06:04:57.213Z,36.60
2023-02-11T06:07:24.898Z,37.50
2023-02-11T06:09:53.955Z,38.20
2023-02-11T06:12:21.619Z,36.63
2023-02-11T06:14:51.723Z,35.33
2023-02-11T06:17:19.538Z,39.70
2023-02-11T06:19:47.208Z,35.53
2023-02-11T06:22:14.845Z,39.37
2023-02-11T06:25:00.378Z,34.80
2023-02-11T06:27:31.135Z,35.57
2023-02-11T06:29:58.765Z,35.23
2023-02-11T06:32:45.373Z,34.27
2023-02-11T06:35:14.521Z,34.77
2023-02-11T06:37:42.731Z,29.60
2023-02-11T06:40:10.827Z,35.20
2023-02-11T06:42:40.097Z,35.60
2023-02-11T06:45:09.507Z,36.97
2023-02-11T06:47:37.327Z,35.87
2023-02-11T06:50:05.865Z,37.20
2023-02-11T06:52:34.291Z,39.40
2023-02-11T06:55:02.593Z,38.90
2023-02-11T06:57:31.310Z,37.87
2023-02-11T07:00:00.358Z,37.30
2023-02-11T07:02:28.220Z,40.30
2023-02-11T07:04:55.931Z,41.20
2023-02-11T07:07:23.550Z,39.60
2023-02-11T07:09:51.295Z,36.93
2023-02-11T07:12:18.925Z,42.97
2023-02-11T07:14:46.754Z,38.10
2023-02-11T07:17:15.738Z,42.43
2023-02-11T07:19:43.792Z,41.50
2023-02-11T07:22:11.586Z,37.57
2023-02-11T07:24:39.186Z,41.43
2023-02-11T07:27:06.879Z,32.17
2023-02-11T07:29:34.564Z,35.23
2023-02-11T07:32:02.248Z,39.20
2023-02-11T07:34:31.377Z,40.03
2023-02-11T07:36:59.107Z,41.10
2023-02-11T07:39:27.393Z,40.40
2023-02-11T07:41:55.292Z,35.93
2023-02-11T07:44:22.964Z,38.67
2023-02-11T07:46:50.762Z,34.00
2023-02-11T07:49:18.707Z,38.90
2023-02-11T07:51:49.998Z,38.73
2023-02-11T07:54:18.065Z,37.80
2023-02-11T07:56:45.853Z,32.90
2023-02-11T07:59:13.601Z,36.13
2023-02-11T08:01:41.312Z,34.23
2023-02-11T08:04:08.995Z,34.93
2023-02-11T08:06:41.318Z,37.43
2023-02-11T08:09:15.663Z,36.60
2023-02-11T08:11:43.684Z,36.30
2023-02-11T08:14:12.170Z,33.73
2023-02-11T08:16:40.068Z,35.73
2023-02-11T08:19:09.165Z,35.53
2023-02-11T08:21:36.917Z,34.10
2023-02-11T08:24:05.204Z,33.77
2023-02-11T08:26:35.349Z,33.70
2023-02-11T08:29:07.155Z,33.20
2023-02-11T08:31:36.971Z,35.57
2023-02-11T08:34:04.897Z,41.47
2023-02-11T08:36:36.679Z,37.23
2023-02-11T08:39:22.487Z,34.53
2023-02-11T08:41:53.655Z,38.90
2023-02-11T08:44:22.561Z,34.77
2023-02-11T08:46:51.203Z,37.13
2023-02-11T08:49:19.086Z,38.67
2023-02-11T08:51:47.613Z,35.67
2023-02-11T08:54:16.178Z,39.07
2023-02-11T08:56:43.842Z,35.00
2023-02-11T08:59:14.570Z,38.47
2023-02-11T09:01:44.102Z,36.30
2023-02-11T09:04:12.127Z,36.37
2023-02-11T09:06:39.853Z,35.27
2023-02-11T09:09:07.777Z,36.60
2023-02-11T09:11:37.287Z,33.80
2023-02-11T09:14:05.499Z,32.43
2023-02-11T09:16:36.736Z,34.10
2023-02-11T09:19:06.872Z,35.50
2023-02-11T09:21:34.751Z,32.97
2023-02-11T09:24:02.565Z,34.43
2023-02-11T09:26:32.596Z,31.20
2023-02-11T09:29:00.857Z,38.93
2023-02-11T09:31:30.442Z,34.97
2023-02-11T09:34:01.780Z,33.70
2023-02-11T09:36:31.327Z,31.07
2023-02-11T09:39:00.110Z,32.33
2023-02-11T09:41:52.107Z,31.53
2023-02-11T09:44:22.411Z,34.50
2023-02-11T09:46:56.153Z,32.10
2023-02-11T09:49:36.222Z,33.70
2023-02-11T09:52:09.134Z,32.90
2023-02-11T09:54:42.539Z,31.93
2023-02-11T09:57:26.496Z,32.93
2023-02-11T09:59:56.886Z,32.27
2023-02-11T10:02:30.857Z,27.90
2023-02-11T10:05:25.611Z,29.87
2023-02-11T10:08:01.235Z,31.33
2023-02-11T10:10:39.949Z,30.70
2023-02-11T10:13:25.749Z,31.67
2023-02-11T10:16:00.638Z,34.23
2023-02-11T10:18:41.502Z,29.87
2023-02-11T10:21:19.950Z,30.03
2023-02-11T10:23:52.648Z,31.47
2023-02-11T10:26:20.857Z,32.60
2023-02-11T10:28:51.362Z,31.10
2023-02-11T10:31:25.119Z,30.77
2023-02-11T10:33:59.294Z,31.13
2023-02-11T10:36:31.294Z,32.20
2023-02-11T10:39:00.308Z,30.67
2023-02-11T10:41:34.926Z,36.17
2023-02-11T10:44:02.842Z,30.33
2023-02-11T10:46:34.046Z,32.90
2023-02-11T10:49:03.432Z,29.77
2023-02-11T10:51:34.406Z,30.93
2023-02-11T10:54:21.343Z,28.33
2023-02-11T10:56:52.150Z,28.00
2023-02-11T10:59:26.226Z,29.23
2023-02-11T11:01:57.472Z,29.07
2023-02-11T11:04:44.975Z,29.80
2023-02-11T11:07:23.850Z,27.00
2023-02-11T11:09:56.627Z,24.50
2023-02-11T11:12:31.408Z,28.63
2023-02-11T11:15:01.166Z,28.77
2023-02-11T11:17:31.640Z,27.63
2023-02-11T11:20:16.546Z,30.10
2023-02-11T11:22:46.118Z,26.03
2023-02-11T11:25:28.010Z,31.33
2023-02-11T11:27:58.799Z,27.13
2023-02-11T11:30:31.610Z,28.03
2023-02-11T11:33:00.306Z,29.53
2023-02-11T11:35:29.898Z,28.57
2023-02-11T11:38:02.960Z,31.57
2023-02-11T11:40:32.290Z,25.60
2023-02-11T11:43:05.823Z,28.60
2023-02-11T11:45:33.968Z,30.30
2023-02-11T11:48:06.916Z,30.37
2023-02-11T11:50:37.990Z,30.20
2023-02-11T11:53:14.908Z,31.17
2023-02-11T11:55:46.323Z,33.43
2023-02-11T11:58:17.657Z,28.90
2023-02-11T12:00:55.556Z,26.07
2023-02-11T12:04:05.035Z,31.50
2023-02-11T12:06:44.372Z,28.27
2023-02-11T12:09:25.014Z,28.97
2023-02-11T12:12:05.768Z,28.37
2023-02-11T12:14:44.765Z,29.83
2023-02-11T12:17:23.080Z,26.37
2023-02-11T12:20:14.057Z,30.53
2023-02-11T12:22:52.311Z,29.27
2023-02-11T12:25:28.445Z,29.60
2023-02-11T12:28:08.853Z,27.33
2023-02-11T12:30:55.155Z,27.07
2023-02-11T12:33:39.886Z,26.63
2023-02-11T12:36:33.500Z,25.70
2023-02-11T12:39:16.839Z,25.40
2023-02-11T12:42:24.289Z,30.90
2023-02-11T12:45:09.934Z,27.53
2023-02-11T12:47:46.408Z,26.17
2023-02-11T12:50:24.310Z,22.40
2023-02-11T12:53:09.549Z,26.90
2023-02-11T12:55:43.261Z,23.93
2023-02-11T12:58:18.025Z,29.97
2023-02-11T13:00:50.696Z,23.47
2023-02-11T13:03:25.542Z,26.60
2023-02-11T13:05:56.934Z,28.60
2023-02-11T13:08:30.388Z,23.80
2023-02-11T13:11:00.720Z,25.87
2023-02-11T13:13:36.085Z,27.13
2023-02-11T13:16:07.604Z,29.70
2023-02-11T13:18:49.604Z,29.07
2023-02-11T13:21:33.484Z,29.83
2023-02-11T13:24:10.491Z,26.07
2023-02-11T13:26:46.714Z,27.07
2023-02-11T13:29:27.824Z,27.93
2023-02-11T13:31:56.716Z,29.00
2023-02-11T13:34:26.396Z,26.00
2023-02-11T13:36:58.359Z,28.60
2023-02-11T13:39:26.225Z,26.63
2023-02-11T13:42:03.352Z,28.30
2023-02-11T13:44:35.160Z,27.20
2023-02-11T13:47:06.024Z,24.47
2023-02-11T13:49:40.404Z,26.53
2023-02-11T13:52:21.064Z,27.30
2023-02-11T13:54:51.822Z,26.40
2023-02-11T13:57:41.162Z,26.13
2023-02-11T14:00:48.881Z,29.83
2023-02-11T14:03:45.574Z,29.23
2023-02-11T14:06:40.377Z,29.80
2023-02-11T14:09:38.906Z,32.40
2023-02-11T14:12:26.180Z,28.27
2023-02-11T14:15:04.322Z,27.33
2023-02-11T14:17:34.542Z,27.87
2023-02-11T14:20:25.460Z,27.23
2023-02-11T14:22:54.630Z,30.90
2023-02-11T14:25:25.496Z,32.27
2023-02-11T14:27:57.288Z,29.23
2023-02-11T14:30:36.427Z,30.50
2023-02-11T14:33:39.444Z,26.60
2023-02-11T14:36:20.976Z,31.57
2023-02-11T14:39:02.771Z,30.30
2023-02-11T14:41:34.331Z,30.90
2023-02-11T14:44:06.918Z,31.93
2023-02-11T14:46:35.483Z,30.70
2023-02-11T14:49:06.316Z,27.43
2023-02-11T14:51:41.669Z,28.30
2023-02-11T14:54:16.774Z,29.77
2023-02-11T14:56:46.810Z,29.33
2023-02-11T14:59:18.458Z,28.43
2023-02-11T15:01:50.332Z,30.80
2023-02-11T15:04:26.038Z,29.43
2023-02-11T15:06:56.743Z,27.73
2023-02-11T15:09:30.793Z,31.10
2023-02-11T15:11:59.615Z,30.57
2023-02-11T15:14:29.304Z,31.73
2023-02-11T15:16:59.562Z,28.23
2023-02-11T15:19:34.274Z,31.43
2023-02-11T15:22:06.739Z,31.63
2023-02-11T15:24:38.962Z,29.93
2023-02-11T15:27:15.521Z,27.00
2023-02-11T15:29:46.161Z,32.60
2023-02-11T15:32:16.862Z,25.30
2023-02-11T15:34:46.279Z,25.93
2023-02-11T15:37:20.994Z,27.50
2023-02-11T15:39:48.742Z,29.63
2023-02-11T15:42:22.221Z,30.93
2023-02-11T15:44:56.579Z,27.40
2023-02-11T15:47:24.792Z,30.40
2023-02-11T15:49:52.536Z,25.60
2023-02-11T15:52:27.364Z,25.00
2023-02-11T15:54:57.441Z,23.60
2023-02-11T15:57:25.093Z,29.43
2023-02-11T15:59:56.187Z,20.87
2023-02-11T16:02:31.430Z,25.63
2023-02-11T16:05:02.009Z,24.60
2023-02-11T16:07:43.343Z,23.23
2023-02-11T16:10:23.217Z,24.60
2023-02-11T16:13:04.051Z,24.17
2023-02-11T16:15:45.439Z,24.67
2023-02-11T16:18:38.274Z,25.27
2023-02-11T16:21:08.763Z,22.50
2023-02-11T16:23:42.276Z,24.23
2023-02-11T16:26:20.714Z,25.63
2023-02-11T16:28:48.612Z,27.77
2023-02-11T16:31:16.467Z,25.17
2023-02-11T16:33:44.358Z,26.47
2023-02-11T16:36:14.638Z,26.80
2023-02-11T16:38:43.613Z,29.97
2023-02-11T16:41:12.775Z,23.90
2023-02-11T16:43:40.688Z,28.17
2023-02-11T16:46:09.192Z,27.57
2023-02-11T16:48:36.777Z,29.67
2023-02-11T16:51:04.869Z,25.73
2023-02-11T16:53:32.518Z,25.33
2023-02-11T16:56:01.495Z,24.97
2023-02-11T16:58:29.062Z,25.10
2023-02-11T17:00:57.086Z,30.27
2023-02-11T17:03:30.064Z,28.20
2023-02-11T17:05:58.025Z,25.67
2023-02-11T17:08:25.676Z,28.20
2023-02-11T17:10:53.699Z,23.43
2023-02-11T17:13:22.914Z,26.57
2023-02-11T17:15:50.944Z,22.70
2023-02-11T17:18:18.915Z,27.23
2023-02-11T17:20:46.521Z,23.07
2023-02-11T17:23:14.311Z,22.80
2023-02-11T17:25:42.064Z,22.93
2023-02-11T17:28:12.148Z,23.30
2023-02-11T17:30:44.163Z,22.70
2023-02-11T17:33:11.895Z,23.80
2023-02-11T17:35:41.528Z,23.50
2023-02-11T17:38:09.265Z,21.63
2023-02-11T17:40:36.959Z,23.27
2023-02-11T17:43:04.779Z,22.77
2023-02-11T17:45:32.443Z,22.80
2023-02-11T17:48:01.506Z,22.33
2023-02-11T17:50:29.622Z,23.80
2023-02-11T17:52:57.743Z,23.70
2023-02-11T17:55:25.324Z,26.93
2023-02-11T17:57:52.945Z,26.07
2023-02-11T18:00:22.444Z,27.27
2023-02-11T18:02:50.013Z,21.83
2023-02-11T18:05:18.964Z,24.20
2023-02-11T18:07:47.973Z,22.37
2023-02-11T18:10:15.626Z,21.60
2023-02-11T18:12:43.304Z,18.77
2023-02-11T18:15:11.602Z,20.33
2023-02-11T18:17:39.231Z,18.73
2023-02-11T18:20:08.687Z,21.23
2023-02-11T18:22:40.087Z,21.43
2023-02-11T18:25:09.629Z,20.73
2023-02-11T18:27:37.242Z,24.83
2023-02-11T18:30:05.805Z,21.13
2023-02-11T18:32:33.363Z,24.37
2023-02-11T18:35:00.993Z,18.80
2023-02-11T18:37:28.601Z,20.47
2023-02-11T18:39:57.575Z,17.80
2023-02-11T18:42:27.765Z,20.53
2023-02-11T18:44:55.566Z,18.97
2023-02-11T18:47:23.192Z,21.00
2023-02-11T18:49:50.875Z,21.23
2023-02-11T18:52:18.558Z,23.23
2023-02-11T18:54:46.301Z,20.07
2023-02-11T18:57:15.204Z,23.87
2023-02-11T18:59:42.943Z,20.43
2023-02-11T19:02:10.805Z,21.67
2023-02-11T19:04:38.554Z,21.67
2023-02-11T19:07:06.286Z,21.63
2023-02-11T19:09:33.945Z,21.90
2023-02-11T19:12:02.197Z,24.70
2023-02-11T19:14:33.465Z,23.97
2023-02-11T19:17:03.068Z,28.23
2023-02-11T19:19:34.503Z,25.53
2023-02-11T19:22:03.342Z,23.47
2023-02-11T19:24:31.511Z,21.27
2023-02-11T19:27:01.552Z,23.03
2023-02-11T19:29:32.063Z,23.73
2023-02-11T19:31:59.739Z,22.97
2023-02-11T19:34:27.609Z,22.07
2023-02-11T19:36:56.660Z,19.60
2023-02-11T19:39:24.823Z,21.70
2023-02-11T19:41:52.583Z,24.40
2023-02-11T19:44:20.293Z,19.23
2023-02-11T19:46:50.176Z,22.20
2023-02-11T19:49:22.925Z,23.33
2023-02-11T19:51:50.762Z,25.27
2023-02-11T19:54:18.447Z,21.97
2023-02-11T19:56:47.285Z,27.20
2023-02-11T19:59:15.418Z,23.50
2023-02-11T20:01:44.288Z,24.73
2023-02-11T20:04:13.349Z,25.53
2023-02-11T20:06:41.164Z,26.53
2023-02-11T20:09:12.815Z,28.27
2023-02-11T20:11:41.338Z,26.17
2023-02-11T20:14:10.491Z,28.57
2023-02-11T20:16:48.237Z,23.27
2023-02-11T20:19:19.519Z,28.17
2023-02-11T20:21:48.906Z,25.13
2023-02-11T20:24:17.334Z,28.57
2023-02-11T20:26:46.820Z,32.23
2023-02-11T20:29:15.265Z,29.50
2023-02-11T20:31:43.742Z,30.60
2023-02-11T20:34:12.297Z,32.93
2023-02-11T20:36:41.996Z,31.67
2023-02-11T20:39:11.633Z,31.23
2023-02-11T20:41:40.646Z,38.17
2023-02-11T20:44:11.135Z,34.20
2023-02-11T20:46:42.245Z,34.07
2023-02-11T20:49:12.194Z,34.40
2023-02-11T20:51:41.599Z,31.13
2023-02-11T20:54:13.522Z,28.10
2023-02-11T20:56:41.544Z,25.47
2023-02-11T20:59:09.692Z,28.47
2023-02-11T21:01:40.678Z,27.00
2023-02-11T21:04:12.042Z,28.73
2023-02-11T21:06:43.150Z,28.27
2023-02-11T21:09:14.077Z,26.67
2023-02-11T21:11:42.281Z,33.10
2023-02-11T21:14:11.081Z,28.43
2023-02-11T21:16:39.200Z,30.03
2023-02-11T21:19:07.724Z,34.77
2023-02-11T21:21:37.317Z,34.70
2023-02-11T21:24:07.469Z,30.70
2023-02-11T21:26:36.303Z,33.97
2023-02-11T21:29:04.438Z,31.30
2023-02-11T21:31:34.119Z,29.03
2023-02-11T21:34:02.469Z,29.13
2023-02-11T21:36:31.169Z,33.43
2023-02-11T21:39:00.125Z,30.67
2023-02-11T21:41:29.144Z,27.53
2023-02-11T21:43:58.752Z,25.47
2023-02-11T21:46:28.621Z,28.53
2023-02-11T21:48:56.469Z,25.77
2023-02-11T21:51:26.630Z,24.10
2023-02-11T21:53:57.560Z,26.63
2023-02-11T21:56:26.301Z,26.50
2023-02-11T21:58:57.571Z,28.70
2023-02-11T22:01:27.581Z,28.90
2023-02-11T22:03:55.197Z,25.67
2023-02-11T22:06:27.050Z,31.57
2023-02-11T22:08:55.644Z,34.47
2023-02-11T22:11:23.732Z,28.43
2023-02-11T22:13:56.229Z,27.80
2023-02-11T22:16:24.968Z,29.20
2023-02-11T22:18:52.760Z,28.43
2023-02-11T22:21:22.755Z,27.83
2023-02-11T22:23:51.110Z,27.53
2023-02-11T22:26:21.728Z,27.33
2023-02-11T22:28:49.890Z,28.83
2023-02-11T22:31:20.901Z,26.50
2023-02-11T22:33:49.219Z,28.40
2023-02-11T22:36:18.561Z,30.30
2023-02-11T22:38:46.483Z,29.83
2023-02-11T22:41:14.310Z,32.27
2023-02-11T22:43:43.050Z,34.33
2023-02-11T22:46:13.603Z,35.57
2023-02-11T22:48:42.929Z,37.43
2023-02-11T22:51:13.115Z,36.60
2023-02-11T22:53:41.123Z,37.10
2023-02-11T22:56:15.036Z,35.13
2023-02-11T22:58:43.249Z,34.60
2023-02-11T23:01:11.182Z,37.27
2023-02-11T23:03:38.987Z,37.77
2023-02-11T23:06:08.965Z,32.73
2023-02-11T23:08:38.329Z,36.17
2023-02-11T23:11:08.025Z,35.87
2023-02-11T23:13:38.165Z,36.00
2023-02-11T23:16:07.522Z,34.13
2023-02-11T23:18:35.946Z,29.40
2023-02-11T23:21:06.595Z,34.97
2023-02-11T23:23:36.003Z,30.77
2023-02-11T23:26:05.009Z,32.20
2023-02-11T23:28:32.657Z,30.00
2023-02-11T23:31:00.434Z,28.67
2023-02-11T23:33:28.174Z,36.50
2023-02-11T23:35:56.153Z,32.07
2023-02-11T23:38:24.061Z,29.40
2023-02-11T23:40:53.008Z,33.90
2023-02-11T23:43:23.355Z,31.30
2023-02-11T23:45:52.782Z,36.97
2023-02-11T23:48:20.506Z,36.57
2023-02-11T23:50:48.090Z,37.47
2023-02-11T23:53:15.861Z,36.63
2023-02-11T23:55:44.306Z,34.77
2023-02-11T23:58:14.251Z,38.67
